Time;durP1;ratioP1;P1;durP2;ratioP2;P2;SDS_P1;SDS_P2;PMS_P1;PMS_P2;Temp;Humidity;BMP_temperature;BMP_pressure;BME280_temperature;BME280_humidity;BME280_pressure;Samples;Min_cycle;Max_cycle;Signal;HPM_P1;HPM_P2
2022/11/20 00:00:09;;;;;;;20.45;18.65;;;;;;;0.95;100.00;101206.53;5219744;28;20036;-88
2022/11/20 00:02:40;;;;;;;20.98;19.33;;;;;;;1.02;100.00;101216.25;5219112;28;20120;-87
2022/11/20 00:05:10;;;;;;;21.10;19.08;;;;;;;1.51;100.00;101289.31;5219651;28;20162;-87
2022/11/20 00:07:41;;;;;;;20.58;18.55;;;;;;;0.96;100.00;101201.03;5237659;28;20021;-88
2022/11/20 00:10:11;;;;;;;21.58;19.40;;;;;;;1.08;100.00;101213.88;5237597;28;20578;-87
2022/11/20 00:12:42;;;;;;;19.45;17.92;;;;;;;0.97;100.00;101204.53;5219666;28;20684;-88
2022/11/20 00:15:12;;;;;;;21.13;19.48;;;;;;;1.16;100.00;101249.16;5219094;28;20479;-88
2022/11/20 00:17:42;;;;;;;19.95;18.42;;;;;;;0.93;100.00;101216.53;5236921;28;20040;-88
2022/11/20 00:20:13;;;;;;;21.27;19.60;;;;;;;1.61;100.00;101306.66;5237313;28;20025;-88
2022/11/20 00:22:44;;;;;;;20.92;19.15;;;;;;;1.03;100.00;101217.09;5237111;28;20127;-87
2022/11/20 00:25:14;;;;;;;22.05;20.35;;;;;;;1.43;100.00;101289.44;5235827;28;20029;-88
2022/11/20 00:27:44;;;;;;;21.45;19.30;;;;;;;0.88;100.00;101205.63;5236813;28;20031;-88
2022/11/20 00:30:15;;;;;;;20.02;18.42;;;;;;;1.31;100.00;101273.91;5237106;28;20052;-87
2022/11/20 00:32:45;;;;;;;20.00;18.27;;;;;;;1.42;100.00;101301.09;5218932;28;20056;-88
2022/11/20 00:35:16;;;;;;;22.05;19.67;;;;;;;1.09;100.00;101252.75;5218718;28;20095;-88
2022/11/20 00:37:46;;;;;;;19.77;18.02;;;;;;;1.11;100.00;101254.22;5218493;28;20463;-88
2022/11/20 00:40:16;;;;;;;19.88;18.02;;;;;;;1.54;100.00;101318.22;5218792;28;20025;-87
2022/11/20 00:42:47;;;;;;;22.27;20.17;;;;;;;1.16;100.00;101246.50;5235945;28;20033;-88
2022/11/20 00:45:17;;;;;;;20.30;18.25;;;;;;;0.84;100.00;101209.69;5236227;28;20276;-88
2022/11/20 00:47:48;;;;;;;18.90;17.27;;;;;;;1.42;100.00;101279.78;5235104;28;20048;-88
2022/11/20 00:50:18;;;;;;;21.23;19.27;;;;;;;0.89;100.00;101197.47;5236265;28;20092;-88
2022/11/20 00:52:48;;;;;;;19.08;17.33;;;;;;;1.09;100.00;101237.63;5236267;28;20025;-88
2022/11/20 00:55:19;;;;;;;19.80;18.23;;;;;;;1.33;100.00;101258.59;5218848;28;20045;-88
2022/11/20 00:57:49;;;;;;;19.08;16.83;;;;;;;0.97;100.00;101212.50;5218824;28;20063;-88
2022/11/20 01:00:20;;;;;;;21.13;19.35;;;;;;;1.05;100.00;101236.34;5218626;28;20443;-87
2022/11/20 01:02:50;;;;;;;19.63;17.63;;;;;;;1.07;100.00;101249.47;5218769;28;20028;-88
2022/11/20 01:05:20;;;;;;;18.45;16.90;;;;;;;1.08;100.00;101235.97;5236258;28;20021;-88
2022/11/20 01:07:51;;;;;;;18.52;17.10;;;;;;;1.56;100.00;101317.00;5235956;28;20406;-88
2022/11/20 01:10:21;;;;;;;20.90;18.75;;;;;;;1.48;100.00;101332.25;5236479;28;20027;-88
2022/11/20 01:13:36;;;;;;;19.73;17.98;;;;;;;1.58;100.00;101324.81;5218353;28;20067;-88
2022/11/20 01:15:42;;;;;;;18.70;17.17;;;;;;;1.13;100.00;101248.72;5235792;28;20039;-87
2022/11/20 01:18:12;;;;;;;19.70;17.95;;;;;;;0.99;100.00;101221.13;5235752;28;20060;-88
2022/11/20 01:20:43;;;;;;;18.73;17.20;;;;;;;1.41;100.00;101270.16;5236082;28;20020;-88
2022/11/20 01:23:13;;;;;;;19.73;18.08;;;;;;;1.10;100.00;101223.31;5217920;28;20021;-88
2022/11/20 01:25:44;;;;;;;20.00;18.30;;;;;;;1.20;100.00;101249.63;5236477;28;20049;-88
2022/11/20 01:28:14;;;;;;;24.25;19.80;;;;;;;1.23;100.00;101265.22;5235864;28;20021;-89
2022/11/20 01:30:44;;;;;;;19.30;17.63;;;;;;;1.02;100.00;101223.41;5220830;28;20093;-88
2022/11/20 01:33:15;;;;;;;20.77;18.27;;;;;;;0.95;100.00;101190.59;5222460;28;20495;-88
2022/11/20 01:35:45;;;;;;;20.83;19.15;;;;;;;1.32;100.00;101253.47;5239913;28;20138;-88
2022/11/20 01:38:16;;;;;;;20.95;19.10;;;;;;;0.87;100.00;101196.81;5222060;28;20100;-87
2022/11/20 01:40:55;;;;;;;18.38;16.52;;;;;;;1.37;100.00;101283.00;5222231;28;20382;-88
2022/11/20 01:43:26;;;;;;;16.70;15.52;;;;;;;1.64;100.00;101300.13;5240289;28;20029;-88
2022/11/20 01:46:02;;;;;;;19.65;17.92;;;;;;;1.62;100.00;101302.16;5221785;28;20383;-88
2022/11/20 01:48:54;;;;;;;19.83;17.95;;;;;;;1.61;100.00;101296.00;5222204;28;20032;-88
2022/11/20 01:51:50;;;;;;;21.10;19.15;;;;;;;1.51;100.00;101290.13;5221797;28;20120;-88
2022/11/20 01:54:36;;;;;;;19.40;17.77;;;;;;;1.35;100.00;101266.41;5239926;28;20111;-88
2022/11/20 01:57:10;;;;;;;17.90;16.23;;;;;;;1.14;100.00;101224.59;5222182;28;20078;-88
2022/11/20 01:59:47;;;;;;;18.73;17.25;;;;;;;1.12;100.00;101220.47;5222250;28;20028;-88
2022/11/20 02:02:18;;;;;;;19.35;17.73;;;;;;;1.39;100.00;101264.19;5221995;28;20072;-88
2022/11/20 02:04:54;;;;;;;19.63;18.08;;;;;;;1.21;100.00;101237.97;5239133;28;20080;-88
2022/11/20 02:07:24;;;;;;;18.08;16.52;;;;;;;1.65;100.00;101310.59;5221759;28;20074;-88
2022/11/20 02:09:55;;;;;;;19.83;18.08;;;;;;;1.59;100.00;101294.53;5221890;28;20485;-88
2022/11/20 02:15:14;;;;;;;20.38;17.90;;;;;;;1.34;100.00;101244.28;5239514;28;20557;-88
2022/11/20 02:17:45;;;;;;;20.73;19.00;;;;;;;1.13;100.00;101209.66;5239287;28;20085;-88
2022/11/20 02:20:15;;;;;;;18.90;17.40;;;;;;;1.63;100.00;101280.66;5241792;28;20033;-88
2022/11/20 02:23:39;;;;;;;20.17;18.48;;;;;;;1.74;100.00;101289.97;5224673;28;20033;-88
2022/11/20 02:26:14;;;;;;;19.77;18.13;;;;;;;1.79;100.00;101290.25;5161954;28;20096;-88
2022/11/20 02:28:44;;;;;;;19.77;18.08;;;;;;;1.77;100.00;101286.94;5239375;28;20391;-88
2022/11/20 02:31:15;;;;;;;19.27;17.67;;;;;;;1.82;100.00;101281.06;5238820;28;20033;-88
2022/11/20 02:33:45;;;;;;;25.75;18.50;;;;;;;1.64;100.00;101263.69;5221508;28;20029;-88
2022/11/20 02:36:16;;;;;;;18.52;16.98;;;;;;;1.52;100.00;101243.06;5221425;28;20033;-88
2022/11/20 02:38:46;;;;;;;17.17;15.77;;;;;;;1.38;100.00;101235.94;5221082;28;20044;-88
2022/11/20 02:41:17;;;;;;;20.10;18.50;;;;;;;1.49;100.00;101246.09;5220688;28;20060;-88
2022/11/20 02:43:47;;;;;;;22.05;20.15;;;;;;;1.36;100.00;101241.44;5220545;28;20116;-88
2022/11/20 02:46:18;;;;;;;18.52;17.23;;;;;;;1.44;100.00;101240.53;5239149;28;20112;-88
2022/11/20 02:48:48;;;;;;;20.30;18.60;;;;;;;1.43;100.00;101238.88;5221329;28;20032;-86
2022/11/20 02:51:18;;;;;;;17.30;15.95;;;;;;;1.21;100.00;101214.84;5220936;28;20021;-87
2022/11/20 02:53:49;;;;;;;18.20;16.60;;;;;;;1.08;100.00;101184.63;5238598;28;20024;-86
2022/11/20 02:56:20;;;;;;;18.25;16.70;;;;;;;1.38;100.00;101233.28;5221119;28;20017;-87
2022/11/20 02:58:50;;;;;;;18.70;17.10;;;;;;;1.34;100.00;101236.31;5239661;28;20021;-87
2022/11/20 03:01:21;;;;;;;20.23;18.25;;;;;;;1.62;100.00;101283.50;5221438;28;20493;-88
2022/11/20 03:03:54;;;;;;;19.65;17.83;;;;;;;1.09;100.00;101197.72;5221377;28;20013;-87
2022/11/20 03:06:24;;;;;;;19.38;17.80;;;;;;;1.42;100.00;101247.88;5221339;28;20028;-87
2022/11/20 03:08:55;;;;;;;20.85;18.98;;;;;;;1.58;100.00;101252.94;5238180;28;20025;-86
2022/11/20 03:11:25;;;;;;;21.75;19.85;;;;;;;1.04;100.00;101160.22;5220295;28;20097;-88
2022/11/20 03:13:55;;;;;;;19.48;17.90;;;;;;;1.19;100.00;101176.97;5239464;28;20048;-87
2022/11/20 03:16:26;;;;;;;21.50;19.55;;;;;;;1.28;100.00;101191.81;5238029;28;20495;-86
2022/11/20 03:18:56;;;;;;;23.05;20.95;;;;;;;1.60;100.00;101242.94;5220736;28;20020;-87
2022/11/20 03:21:26;;;;;;;19.92;18.27;;;;;;;1.11;100.00;101170.94;5219986;28;20029;-87
2022/11/20 03:23:57;;;;;;;20.05;18.45;;;;;;;1.27;100.00;101219.44;5237406;28;20032;-86
2022/11/20 03:26:28;;;;;;;22.05;19.75;;;;;;;1.33;100.00;101208.06;5219552;28;20029;-87
2022/11/20 03:29:00;;;;;;;17.77;16.25;;;;;;;1.35;100.00;101207.88;5238166;28;20024;-86
2022/11/20 03:31:34;;;;;;;18.00;16.55;;;;;;;1.54;100.00;101238.38;5237293;28;20025;-87
2022/11/20 03:34:04;;;;;;;17.05;15.55;;;;;;;1.38;100.00;101199.50;5236778;28;20071;-87
2022/11/20 03:36:38;;;;;;;19.00;17.13;;;;;;;1.30;100.00;101181.81;5237486;28;20020;-87
2022/11/20 03:39:08;;;;;;;21.52;19.40;;;;;;;1.30;100.00;101197.78;5237821;28;20111;-87
2022/11/20 03:41:41;;;;;;;23.15;21.13;;;;;;;1.67;100.00;101254.50;5237748;28;20128;-87
2022/11/20 03:44:12;;;;;;;18.00;16.40;;;;;;;1.66;100.00;101235.03;5237000;28;20025;-86
2022/11/20 03:46:42;;;;;;;18.45;16.90;;;;;;;1.43;100.00;101206.94;5237377;28;20021;-86
2022/11/20 03:49:12;;;;;;;20.88;17.17;;;;;;;1.21;100.00;101172.28;5237210;28;20053;-86
2022/11/20 03:51:43;;;;;;;17.23;15.88;;;;;;;1.05;100.00;101156.56;5236819;28;20086;-87
2022/11/20 03:54:13;;;;;;;17.73;16.33;;;;;;;1.15;100.00;101169.56;5236166;28;20406;-87
2022/11/20 03:56:44;;;;;;;19.67;18.08;;;;;;;1.52;100.00;101224.41;5237231;28;20057;-86
2022/11/20 03:59:14;;;;;;;18.58;16.75;;;;;;;1.25;100.00;101178.88;5219840;28;20134;-87
2022/11/20 04:01:45;;;;;;;19.85;18.27;;;;;;;1.37;100.00;101197.03;5237433;28;20020;-86
2022/11/20 04:04:15;;;;;;;18.13;16.65;;;;;;;1.38;100.00;101204.84;5237551;28;20025;-86
2022/11/20 04:06:45;;;;;;;18.83;17.10;;;;;;;1.66;100.00;101248.34;5237080;28;20024;-85
2022/11/20 04:09:16;;;;;;;19.15;17.60;;;;;;;1.18;100.00;101169.16;5237694;28;20108;-87
2022/11/20 04:11:46;;;;;;;18.77;16.88;;;;;;;1.18;100.00;101170.00;5219349;28;20574;-87
2022/11/20 04:14:17;;;;;;;20.80;19.08;;;;;;;1.23;100.00;101158.81;5236899;28;20028;-87
2022/11/20 04:16:47;;;;;;;20.92;19.10;;;;;;;1.39;100.00;101189.69;5218823;28;20029;-86
2022/11/20 04:19:18;;;;;;;19.73;18.02;;;;;;;1.04;100.00;101122.19;5242715;28;20017;-86
2022/11/20 04:21:48;;;;;;;20.27;18.63;;;;;;;1.32;100.00;101166.50;5234135;28;20035;-86
2022/11/20 04:24:19;;;;;;;20.73;18.92;;;;;;;1.29;100.00;101174.84;5252141;28;20020;-87
2022/11/20 04:26:49;;;;;;;20.92;19.02;;;;;;;1.39;100.00;101171.06;5246077;28;20427;-86
2022/11/20 04:29:19;;;;;;;18.20;16.58;;;;;;;1.59;100.00;101190.72;5237812;28;20032;-87
2022/11/20 04:31:50;;;;;;;20.77;18.90;;;;;;;1.62;100.00;101191.16;5218631;28;20021;-87
2022/11/20 04:34:20;;;;;;;19.83;18.13;;;;;;;1.34;100.00;101148.50;5236352;28;20020;-87
2022/11/20 04:36:51;;;;;;;20.58;18.77;;;;;;;1.46;100.00;101167.44;5236551;28;20021;-87
2022/11/20 04:39:21;;;;;;;19.35;17.75;;;;;;;1.69;100.00;101215.19;5218605;28;20108;-87
2022/11/20 04:42:28;;;;;;;22.05;20.15;;;;;;;1.53;100.00;101170.19;5236262;28;20028;-85
2022/11/20 04:44:42;;;;;;;19.67;17.98;;;;;;;1.84;100.00;101215.97;5236095;28;20056;-87
2022/11/20 04:47:12;;;;;;;22.95;21.23;;;;;;;1.57;100.00;101179.44;5218622;28;20036;-87
2022/11/20 04:49:42;;;;;;;22.20;20.08;;;;;;;1.51;100.00;101169.53;5218850;28;20053;-87
2022/11/20 04:52:13;;;;;;;22.25;20.17;;;;;;;1.78;100.00;101210.56;5237087;28;20033;-87
2022/11/20 04:54:43;;;;;;;19.63;18.15;;;;;;;1.86;100.00;101211.28;5236941;28;20136;-87
2022/11/20 04:57:14;;;;;;;21.98;19.98;;;;;;;1.44;100.00;101166.00;5219617;28;20461;-87
2022/11/20 04:59:45;;;;;;;20.98;19.15;;;;;;;1.33;100.00;101130.91;5236010;28;20126;-87
2022/11/20 05:02:15;;;;;;;22.55;20.50;;;;;;;1.34;100.00;101139.69;5235857;28;20028;-88
2022/11/20 05:04:45;;;;;;;22.38;20.60;;;;;;;1.57;100.00;101172.28;5216877;28;20504;-87
2022/11/20 05:07:16;;;;;;;24.77;22.77;;;;;;;1.44;100.00;101152.72;5217663;28;20029;-87
2022/11/20 05:09:46;;;;;;;27.63;25.55;;;;;;;1.58;100.00;101163.28;5237065;28;20064;-86
2022/11/20 05:12:17;;;;;;;23.23;20.77;;;;;;;1.51;100.00;101166.88;5222509;28;20029;-87
2022/11/20 05:14:47;;;;;;;27.52;24.83;;;;;;;1.89;100.00;101199.41;5239582;28;20029;-85
2022/11/20 05:17:17;;;;;;;24.75;22.52;;;;;;;1.74;100.00;101178.16;5241171;22;20045;-79
2022/11/20 05:19:48;;;;;;;24.85;22.65;;;;;;;1.77;100.00;101184.94;5233666;28;20028;-80
2022/11/20 05:22:18;;;;;;;23.95;21.98;;;;;;;1.81;100.00;101200.34;5233891;28;20021;-80
2022/11/20 05:24:48;;;;;;;28.30;25.30;;;;;;;1.81;100.00;101208.34;5233414;28;20040;-80
2022/11/20 05:27:20;;;;;;;27.73;25.35;;;;;;;1.79;100.00;101201.56;5232547;28;20081;-80
2022/11/20 05:29:50;;;;;;;25.70;23.45;;;;;;;1.66;100.00;101192.44;5234311;28;20029;-81
2022/11/20 05:32:21;;;;;;;26.75;24.08;;;;;;;1.76;100.00;101201.94;5215598;28;20059;-80
2022/11/20 05:34:52;;;;;;;31.08;28.23;;;;;;;1.71;100.00;101199.88;5215046;28;20055;-80
2022/11/20 05:37:22;;;;;;;26.10;23.55;;;;;;;1.62;100.00;101185.84;5234986;28;20060;-80
2022/11/20 05:39:52;;;;;;;38.40;33.22;;;;;;;1.72;100.00;101212.16;5220200;28;20044;-80
2022/11/20 05:42:32;;;;;;;32.30;28.92;;;;;;;1.56;100.00;101194.59;5212399;28;20021;-79
2022/11/20 05:45:04;;;;;;;33.92;29.98;;;;;;;1.58;100.00;101194.41;5225564;28;20029;-79
2022/11/20 05:47:34;;;;;;;38.83;30.05;;;;;;;1.60;100.00;101198.53;5225899;28;20482;-79
2022/11/20 05:50:05;;;;;;;32.45;29.23;;;;;;;1.53;100.00;101180.81;5229584;28;20054;-80
2022/11/20 05:52:35;;;;;;;37.00;33.33;;;;;;;1.70;100.00;101200.88;5232898;28;20346;-80
2022/11/20 05:55:06;;;;;;;36.92;32.47;;;;;;;1.63;100.00;101195.47;5225786;28;20024;-79
2022/11/20 05:57:37;;;;;;;37.33;33.30;;;;;;;1.78;100.00;101207.91;5232888;28;20021;-80
2022/11/20 06:00:08;;;;;;;37.05;33.28;;;;;;;1.82;100.00;101206.50;5233928;28;20391;-80
2022/11/20 06:02:38;;;;;;;38.05;34.22;;;;;;;1.71;100.00;101180.41;5214057;28;20505;-80
2022/11/20 06:05:08;;;;;;;39.08;34.80;;;;;;;1.77;100.00;101193.75;5233331;28;20040;-80
2022/11/20 06:07:39;;;;;;;38.97;34.72;;;;;;;1.66;100.00;101170.31;5216426;28;20569;-80
2022/11/20 06:10:10;;;;;;;37.90;34.65;;;;;;;1.75;100.00;101184.31;5216094;28;20112;-79
2022/11/20 06:12:40;;;;;;;36.00;32.05;;;;;;;1.73;100.00;101171.22;5232810;28;20029;-80
2022/11/20 06:15:10;;;;;;;40.70;36.67;;;;;;;1.71;100.00;101167.91;5232236;28;20032;-80
2022/11/20 06:17:41;;;;;;;40.20;36.08;;;;;;;1.69;100.00;101169.94;5234608;28;20036;-79
2022/11/20 06:20:11;;;;;;;38.15;33.33;;;;;;;1.77;100.00;101174.28;5234694;28;20033;-80
2022/11/20 06:22:42;;;;;;;44.40;39.97;;;;;;;1.73;100.00;101155.25;5236000;28;20027;-80
2022/11/20 06:25:12;;;;;;;43.05;35.53;;;;;;;1.67;100.00;101129.38;5230341;28;20394;-79
2022/11/20 06:27:42;;;;;;;44.63;39.95;;;;;;;1.67;100.00;101121.41;5228603;28;20021;-79
2022/11/20 06:30:13;;;;;;;40.60;36.63;;;;;;;1.78;100.00;101144.81;5211235;28;20073;-79
2022/11/20 06:32:43;;;;;;;39.72;36.20;;;;;;;1.59;100.00;101124.19;5231060;28;20025;-80
2022/11/20 06:35:14;;;;;;;41.08;36.58;;;;;;;1.76;100.00;101160.16;5213525;28;20110;-80
2022/11/20 06:37:44;;;;;;;41.95;37.25;;;;;;;1.70;100.00;101139.66;5232389;28;20491;-80
2022/11/20 06:40:15;;;;;;;41.15;37.47;;;;;;;1.72;100.00;101158.91;5231924;28;20445;-81
2022/11/20 06:42:45;;;;;;;37.55;33.60;;;;;;;1.69;100.00;101153.97;5211607;28;20414;-80
2022/11/20 06:45:15;;;;;;;39.17;33.30;;;;;;;1.68;100.00;101155.81;5210829;28;20442;-81
2022/11/20 06:47:46;;;;;;;40.90;36.72;;;;;;;1.75;100.00;101161.19;5213187;28;20467;-80
2022/11/20 06:50:16;;;;;;;41.08;37.05;;;;;;;1.80;100.00;101176.59;5210577;28;20047;-80
2022/11/20 06:52:47;;;;;;;41.63;33.47;;;;;;;1.85;100.00;101176.84;5193451;28;20416;-81
2022/11/20 06:58:44;;;;;;;39.47;35.55;;;;;;;1.86;100.00;101205.94;5212169;28;20506;-81
2022/11/20 07:01:17;;;;;;;41.38;36.22;;;;;;;1.87;100.00;101177.47;5211545;28;20055;-81
2022/11/20 07:03:49;;;;;;;42.22;38.03;;;;;;;1.84;100.00;101162.69;5193634;28;20035;-81
2022/11/20 07:06:20;;;;;;;40.03;36.17;;;;;;;1.85;100.00;101164.34;5194890;28;20025;-80
2022/11/20 07:08:52;;;;;;;40.58;36.45;;;;;;;1.73;100.00;101147.25;5212823;28;20032;-81
2022/11/20 07:11:23;;;;;;;40.78;36.22;;;;;;;1.79;100.00;101162.44;5212275;28;20024;-81
2022/11/20 07:13:53;;;;;;;41.10;36.85;;;;;;;1.85;100.00;101175.00;5213484;28;20368;-81
2022/11/20 07:16:24;;;;;;;41.10;36.97;;;;;;;1.65;100.00;101136.72;5212034;22;1290097;-65
2022/11/20 07:18:54;;;;;;;41.53;37.50;;;;;;;1.79;100.00;101161.63;5215185;28;20399;-67
2022/11/20 07:21:24;;;;;;;40.80;36.67;;;;;;;1.82;100.00;101159.41;5209861;28;20445;-64
2022/11/20 07:23:55;;;;;;;37.10;33.20;;;;;;;1.80;100.00;101165.94;5209731;28;20029;-65
2022/11/20 07:26:25;;;;;;;33.72;30.38;;;;;;;1.78;100.00;101168.78;5210224;28;20027;-67
2022/11/20 07:28:56;;;;;;;41.35;37.35;;;;;;;1.75;100.00;101171.00;5208950;28;20301;-65
2022/11/20 07:31:26;;;;;;;42.20;36.45;;;;;;;1.61;100.00;101164.75;5209624;28;20033;-66
2022/11/20 07:33:57;;;;;;;39.20;34.78;;;;;;;1.73;100.00;101175.72;5227784;28;20060;-65
2022/11/20 07:36:27;;;;;;;42.08;37.55;;;;;;;1.68;100.00;101170.97;5209931;28;20060;-66
2022/11/20 07:38:58;;;;;;;40.67;36.85;;;;;;;1.77;100.00;101182.28;5209660;28;20021;-66
2022/11/20 07:41:28;;;;;;;40.83;35.47;;;;;;;1.74;100.00;101175.50;5227395;28;20033;-65
2022/11/20 07:43:59;;;;;;;41.90;37.65;;;;;;;1.83;100.00;101185.00;5209092;28;20025;-65
2022/11/20 07:46:29;;;;;;;39.72;35.50;;;;;;;1.94;100.00;101181.03;5227464;28;20032;-65
2022/11/20 07:49:00;;;;;;;37.28;33.72;;;;;;;2.03;100.00;101186.00;5209711;28;20078;-68
2022/11/20 07:51:30;;;;;;;36.22;32.47;;;;;;;2.10;100.00;101171.94;5209299;28;20098;-65
2022/11/20 07:54:01;;;;;;;41.50;35.20;;;;;;;2.14;100.00;101173.19;5209122;28;20024;-64
2022/11/20 07:56:31;;;;;;;39.53;35.25;;;;;;;2.20;100.00;101175.09;5209503;28;20151;-66
2022/11/20 07:59:03;;;;;;;36.53;33.03;;;;;;;2.25;100.00;101172.69;5209311;28;20100;-65
2022/11/20 08:01:33;;;;;;;36.28;32.80;;;;;;;2.28;100.00;101167.78;5209044;28;20036;-66
2022/11/20 08:04:04;;;;;;;40.35;35.88;;;;;;;2.27;100.00;101170.66;5208977;28;20025;-66
2022/11/20 08:06:35;;;;;;;37.88;32.05;;;;;;;2.27;100.00;101171.47;5227050;28;20389;-66
2022/11/20 08:09:05;;;;;;;40.38;35.55;;;;;;;2.28;100.00;101162.47;5209099;28;20509;-66
2022/11/20 08:14:27;;;;;;;35.47;31.80;;;;;;;2.46;100.00;101155.78;5226729;28;20552;-66
2022/11/20 08:16:57;;;;;;;35.67;31.45;;;;;;;2.46;100.00;101159.28;5208919;28;20086;-68
2022/11/20 08:19:28;;;;;;;34.63;31.17;;;;;;;2.51;100.00;101156.03;5209114;28;20497;-67
2022/11/20 08:21:58;;;;;;;36.38;32.78;;;;;;;2.47;100.00;101144.94;5208836;28;20028;-66
2022/11/20 08:24:28;;;;;;;40.47;32.17;;;;;;;2.65;100.00;101165.75;5208751;28;20025;-66
2022/11/20 08:26:59;;;;;;;38.50;34.83;;;;;;;2.64;100.00;101164.91;5209240;28;20057;-66
2022/11/20 08:29:29;;;;;;;38.50;34.72;;;;;;;2.68;100.00;101160.84;5208527;28;20032;-65
2022/11/20 08:32:00;;;;;;;41.20;36.80;;;;;;;2.64;100.00;101151.59;5226474;28;20033;-67
2022/11/20 08:34:30;;;;;;;41.17;37.08;;;;;;;2.67;100.00;101159.19;5208668;28;20027;-67
2022/11/20 08:37:02;;;;;;;36.72;33.03;;;;;;;2.74;100.00;101153.91;5208234;28;20028;-65
2022/11/20 08:39:32;;;;;;;38.13;33.75;;;;;;;2.74;100.00;101148.56;5208238;28;20036;-68
2022/11/20 08:42:07;;;;;;;39.78;34.92;;;;;;;2.76;100.00;101157.19;5208582;28;20036;-67
2022/11/20 08:44:37;;;;;;;34.30;30.98;;;;;;;2.82;100.00;101150.25;5208318;28;20039;-66
2022/11/20 08:47:08;;;;;;;43.70;37.22;;;;;;;2.85;100.00;101133.88;5208461;28;20036;-65
2022/11/20 08:49:38;;;;;;;37.80;34.30;;;;;;;2.88;100.00;101141.47;5208383;28;20185;-65
2022/11/20 08:52:09;;;;;;;42.85;35.78;;;;;;;2.96;100.00;101120.75;5208825;28;20025;-65
2022/11/20 08:54:39;;;;;;;33.60;30.20;;;;;;;3.06;100.00;101120.41;5208213;28;20045;-65
2022/11/20 08:57:10;;;;;;;38.88;34.80;;;;;;;3.06;100.00;101107.06;5208539;28;20028;-67
2022/11/20 08:59:40;;;;;;;40.22;36.30;;;;;;;3.24;100.00;101117.97;5208100;28;20025;-67
2022/11/20 09:02:11;;;;;;;34.85;31.33;;;;;;;3.20;100.00;101098.03;5226266;28;20033;-65
2022/11/20 09:04:42;;;;;;;38.08;34.10;;;;;;;3.33;100.00;101095.41;5208147;28;20035;-70
2022/11/20 09:07:12;;;;;;;36.15;32.40;;;;;;;3.50;100.00;101100.34;5208153;28;20032;-66
2022/11/20 09:09:43;;;;;;;42.42;37.88;;;;;;;3.57;100.00;101107.34;5208231;28;20377;-65
2022/11/20 09:12:13;;;;;;;36.65;33.05;;;;;;;3.42;100.00;101064.03;5208162;28;20500;-66
2022/11/20 09:14:44;;;;;;;38.83;35.05;;;;;;;3.66;100.00;101097.31;5207874;28;20017;-64
2022/11/20 09:17:14;;;;;;;36.80;33.22;;;;;;;3.70;100.00;101099.38;5208188;28;20035;-65
2022/11/20 09:19:45;;;;;;;37.50;33.45;;;;;;;3.77;100.00;101098.53;5207485;28;20020;-69
2022/11/20 09:22:15;;;;;;;38.65;34.75;;;;;;;3.76;100.00;101089.69;5208455;28;20495;-66
2022/11/20 09:24:46;;;;;;;36.53;31.92;;;;;;;3.77;100.00;101093.19;5207618;28;20028;-66
2022/11/20 09:27:21;;;;;;;41.65;32.08;;;;;;;3.83;100.00;101085.19;5207766;28;20040;-65
2022/11/20 09:29:51;;;;;;;41.30;33.00;;;;;;;3.68;100.00;101041.84;5207987;28;20114;-69
2022/11/20 09:32:22;;;;;;;36.15;32.35;;;;;;;3.80;100.00;101058.88;5208313;28;20087;-65
2022/11/20 09:34:52;;;;;;;36.72;33.45;;;;;;;3.96;100.00;101071.81;5207675;28;20138;-67
2022/11/20 09:37:23;;;;;;;34.13;29.58;;;;;;;3.99;100.00;101063.41;5208029;28;20492;-65
2022/11/20 09:39:53;;;;;;;38.97;32.25;;;;;;;4.05;100.00;101053.69;5226011;28;20249;-65
2022/11/20 09:42:51;;;;;;;34.05;30.65;;;;;;;4.12;100.00;101054.50;5208156;28;20029;-65
2022/11/20 09:45:28;;;;;;;38.50;32.42;;;;;;;4.15;100.00;101054.09;5225618;28;20308;-65
2022/11/20 09:48:18;;;;;;;40.28;30.90;;;;;;;4.15;100.00;101048.75;5225923;28;20501;-69
2022/11/20 09:51:06;;;;;;;36.55;32.63;;;;;;;4.21;100.00;101044.44;5209138;28;20128;-65
2022/11/20 09:53:56;;;;;;;35.45;31.92;;;;;;;4.19;100.00;101041.16;5211498;28;20165;-66
2022/11/20 09:56:28;;;;;;;35.42;32.08;;;;;;;4.10;100.00;101029.84;5229857;28;20236;-66
2022/11/20 09:59:04;;;;;;;35.20;31.65;;;;;;;4.20;100.00;101037.44;5229787;28;20401;-64
2022/11/20 10:01:38;;;;;;;37.50;33.72;;;;;;;4.26;100.00;101037.44;5229867;28;20281;-64
2022/11/20 10:04:19;;;;;;;34.15;30.48;;;;;;;4.37;100.00;101033.25;5211211;28;20035;-64
2022/11/20 10:06:59;;;;;;;40.10;35.03;;;;;;;4.43;100.00;101036.94;5211990;28;20075;-69
2022/11/20 10:09:37;;;;;;;40.63;34.33;;;;;;;4.42;100.00;101036.13;5211708;28;20127;-65
2022/11/20 10:12:23;;;;;;;39.58;33.42;;;;;;;4.35;100.00;101003.25;5211182;28;20037;-68
2022/11/20 10:15:15;;;;;;;40.88;34.60;;;;;;;4.53;100.00;101030.13;5210798;28;20039;-65
2022/11/20 10:18:13;;;;;;;41.25;33.95;;;;;;;4.53;100.00;101030.13;5211653;28;20082;-65
2022/11/20 10:20:53;;;;;;;35.95;32.17;;;;;;;4.52;100.00;101027.69;5228874;28;20477;-65
2022/11/20 10:23:35;;;;;;;35.35;31.58;;;;;;;4.55;100.00;101028.06;5228693;28;20039;-65
2022/11/20 10:26:41;;;;;;;48.47;33.88;;;;;;;4.56;100.00;101016.34;5211337;28;20087;-66
2022/11/20 10:29:21;;;;;;;37.47;32.70;;;;;;;4.45;100.00;100997.47;5108996;29;20053;-66
2022/11/20 10:31:57;;;;;;;36.40;32.63;;;;;;;4.47;100.00;100992.72;5200633;28;20520;-66
2022/11/20 10:34:46;;;;;;;44.78;33.58;;;;;;;4.70;100.00;100996.50;5210881;28;20017;-66
2022/11/20 10:37:28;;;;;;;37.97;34.17;;;;;;;4.82;100.00;100983.28;5210876;28;20123;-66
2022/11/20 10:40:20;;;;;;;41.33;34.28;;;;;;;4.98;100.00;100965.88;5210669;28;20037;-66
2022/11/20 10:42:59;;;;;;;44.20;34.70;;;;;;;5.08;100.00;100964.38;5210535;28;20047;-65
2022/11/20 10:45:57;;;;;;;37.38;28.98;;;;;;;5.08;100.00;100963.56;5210836;28;20351;-66
2022/11/20 10:48:28;;;;;;;45.75;34.20;;;;;;;5.18;100.00;100952.38;5210666;28;20021;-65
2022/11/20 10:51:05;;;;;;;43.72;36.00;;;;;;;5.28;100.00;100950.00;5210890;28;20037;-66
2022/11/20 10:53:56;;;;;;;53.88;36.83;;;;;;;5.31;100.00;100939.69;5210274;28;20393;-67
2022/11/20 10:56:47;;;;;;;46.05;36.78;;;;;;;5.27;100.00;100927.75;5210579;28;20055;-65
2022/11/20 10:59:38;;;;;;;50.65;37.03;;;;;;;5.30;100.00;100937.22;5210491;28;20120;-66
2022/11/20 11:02:21;;;;;;;51.17;36.45;;;;;;;5.20;100.00;100935.03;5209581;28;20032;-65
2022/11/20 11:04:53;;;;;;;38.30;34.47;;;;;;;5.17;100.00;100930.13;5224108;28;20033;-65
2022/11/20 11:07:29;;;;;;;45.65;36.53;;;;;;;4.90;100.00;100899.25;5232265;28;20150;-65
2022/11/20 11:09:59;;;;;;;47.70;32.58;;;;;;;5.09;100.00;100935.75;5231379;28;20111;-67
2022/11/20 11:12:30;;;;;;;53.90;37.40;;;;;;;4.99;100.00;100905.97;5230761;28;20085;-65
2022/11/20 11:15:00;;;;;;;45.30;35.67;;;;;;;5.22;100.00;100924.09;5230510;28;20376;-65
2022/11/20 11:17:33;;;;;;;39.17;33.30;;;;;;;5.28;100.00;100918.69;5230731;28;20027;-65
2022/11/20 11:20:16;;;;;;;42.83;33.47;;;;;;;5.15;100.00;100869.81;5230713;28;20035;-71
2022/11/20 11:22:49;;;;;;;36.35;32.45;;;;;;;5.50;100.00;100894.16;5230657;28;20032;-67
2022/11/20 11:25:39;;;;;;;46.58;34.42;;;;;;;5.53;100.00;100894.56;5230320;28;20127;-66
2022/11/20 11:28:21;;;;;;;39.35;35.17;;;;;;;5.66;100.00;100894.41;5230026;28;20036;-68
2022/11/20 11:30:51;;;;;;;45.17;32.85;;;;;;;5.76;100.00;100886.69;5230732;28;20081;-65
2022/11/20 11:33:28;;;;;;;51.50;36.95;;;;;;;5.84;100.00;100882.06;5248418;28;20024;-65
2022/11/20 11:36:02;;;;;;;46.92;35.35;;;;;;;5.87;100.00;100879.75;5230445;28;20108;-67
2022/11/20 11:38:43;;;;;;;47.10;34.45;;;;;;;5.89;100.00;100869.66;5230618;28;20063;-67
2022/11/20 11:41:22;;;;;;;43.15;33.08;;;;;;;6.03;100.00;100867.66;5230363;28;20032;-65
2022/11/20 11:46:54;;;;;;;39.22;35.03;;;;;;;6.23;100.00;100833.34;5248498;28;20435;-66